Terminal Aerodrome Forecast
Issued by NWS

Home | Current Version | Previous Version | Text Only | Print | Product List | Glossary On
Versions: 1 2 3 4 5 6 7 8 9 10 11 12 13 14 15 16 17 18 19 20 21 22 23 24 25 26 27 28 29 30 31 32 33 34 35
774
FTUS41 KOKX 280017 AAA
TAFTEB
TAF AMD
KTEB 280017Z 2800/2824 14008KT 2SM BR OVC006
     FM280200 14005KT 1SM -DZ BR OVC005
     FM280400 VRB02KT 1/2SM -DZ FG OVC003
     FM281000 23005KT 1 1/2SM BR OVC006
     FM281300 26007KT P6SM SCT006 BKN060=

USA.gov is the U.S. government's official web portal to all federal, state and local government web resources and services.